Briarwood Beach, Ohio
Current Conditions -  °F | °C
As of 3:14 PM on Thursday 23 Oct 2014 (Local Time) from KBJJ Reporting Station
Scattered Clouds Scattered Clouds  
Wind Chill: 59°   Ceiling: Unl
Heat Index: 59°   Visibility: 10mi
Dew Point: 43°   Wind: 5mph
Humidity: 55%   Direction: 310°NW
Pressure: 30.14"   Gusts: NA
Location:  41.0673°N, 81.9012°W
Report Text: KBJJ 231914Z AUTO 31004KT 10SM SCT029 15/06 A3014 RMK AO2 T01500061 TSNO
Loading
Personal Weather Stations






























Interactive Weather Map
Tropical Storm Tracking
New forecast layout! Learn more

10-Day Weather Forecast

Advertisements
Track Severe Weather on mobile